createdAt,value
2022-08-28T00:01:01.582Z,10.95
2022-08-28T00:03:30.433Z,10.52
2022-08-28T00:05:57.714Z,11.13
2022-08-28T00:08:24.843Z,10.27
2022-08-28T00:10:52.293Z,10.40
2022-08-28T00:13:21.695Z,9.73
2022-08-28T00:15:52.036Z,11.00
2022-08-28T00:18:19.823Z,10.32
2022-08-28T00:20:47.652Z,9.90
2022-08-28T00:23:14.937Z,10.07
2022-08-28T00:25:42.272Z,9.90
2022-08-28T00:28:23.755Z,9.50
2022-08-28T00:30:54.985Z,9.07
2022-08-28T00:33:30.035Z,9.82
2022-08-28T00:35:58.232Z,9.15
2022-08-28T00:38:27.340Z,8.63
2022-08-28T00:40:58.385Z,8.95
2022-08-28T00:43:36.818Z,9.77
2022-08-28T00:46:09.458Z,9.70
2022-08-28T00:48:37.229Z,9.25
2022-08-28T00:51:24.610Z,9.63
2022-08-28T00:53:58.050Z,8.55
2022-08-28T00:56:26.943Z,8.18
2022-08-28T00:58:56.986Z,8.93
2022-08-28T01:01:24.477Z,10.18
2022-08-28T01:03:51.621Z,9.15
2022-08-28T01:06:20.895Z,9.73
2022-08-28T01:08:50.634Z,9.30
2022-08-28T01:11:19.711Z,9.75
2022-08-28T01:13:48.743Z,9.15
2022-08-28T01:16:18.279Z,9.20
2022-08-28T01:18:47.033Z,9.80
2022-08-28T01:21:36.923Z,9.18
2022-08-28T01:24:15.147Z,9.73
2022-08-28T01:26:43.485Z,9.40
2022-08-28T01:29:12.098Z,9.05
2022-08-28T01:31:40.746Z,8.73
2022-08-28T01:34:10.029Z,9.15
2022-08-28T01:36:37.167Z,9.43
2022-08-28T01:39:17.174Z,10.15
2022-08-28T01:41:47.024Z,9.55
2022-08-28T01:44:18.149Z,9.10
2022-08-28T01:46:46.640Z,9.57
2022-08-28T01:49:14.202Z,9.35
2022-08-28T01:51:42.640Z,9.30
2022-08-28T01:54:10.900Z,9.57
2022-08-28T01:56:39.766Z,9.67
2022-08-28T01:59:08.964Z,10.00
2022-08-28T02:01:37.026Z,9.90
2022-08-28T02:04:04.700Z,9.98
2022-08-28T02:06:32.530Z,9.32
2022-08-28T02:09:00.674Z,9.60
2022-08-28T02:11:30.071Z,9.52
2022-08-28T02:13:57.162Z,10.17
2022-08-28T02:16:25.640Z,10.27
2022-08-28T02:18:53.415Z,10.10
2022-08-28T02:21:20.663Z,9.93
2022-08-28T02:23:48.136Z,10.30
2022-08-28T02:26:15.823Z,10.80
2022-08-28T02:28:43.582Z,9.35
2022-08-28T02:31:11.387Z,10.13
2022-08-28T02:33:43.902Z,10.32
2022-08-28T02:36:13.258Z,9.48
2022-08-28T02:38:40.561Z,10.27
2022-08-28T02:41:08.494Z,10.25
2022-08-28T02:43:35.608Z,10.73
2022-08-28T02:46:03.195Z,10.77
2022-08-28T02:48:32.481Z,10.43
2022-08-28T02:51:02.999Z,10.80
2022-08-28T02:53:30.620Z,10.77
2022-08-28T02:55:58.943Z,10.35
2022-08-28T02:58:27.470Z,11.52
2022-08-28T03:00:55.307Z,9.80
2022-08-28T03:03:22.620Z,10.77
2022-08-28T03:05:50.047Z,11.32
2022-08-28T03:08:17.885Z,10.98
2022-08-28T03:10:45.093Z,11.35
2022-08-28T03:13:23.093Z,10.52
2022-08-28T03:15:55.894Z,11.05
2022-08-28T03:18:25.397Z,10.27
2022-08-28T03:20:53.812Z,10.88
2022-08-28T03:23:26.889Z,11.65
2022-08-28T03:26:10.071Z,10.63
2022-08-28T03:28:42.020Z,11.70
2022-08-28T03:31:13.494Z,12.25
2022-08-28T03:33:42.939Z,11.82
2022-08-28T03:36:12.432Z,10.65
2022-08-28T03:38:39.782Z,11.13
2022-08-28T03:41:11.841Z,10.82
2022-08-28T03:43:39.098Z,11.98
2022-08-28T03:46:06.763Z,11.05
2022-08-28T03:48:36.911Z,11.68
2022-08-28T03:51:19.654Z,10.45
2022-08-28T03:53:53.073Z,10.57
2022-08-28T03:56:23.981Z,12.05
2022-08-28T03:58:53.618Z,11.48
2022-08-28T04:01:21.574Z,11.02
2022-08-28T04:03:49.162Z,11.68
2022-08-28T04:06:17.011Z,11.52
2022-08-28T04:08:44.073Z,11.48
2022-08-28T04:11:11.274Z,10.68
2022-08-28T04:13:38.332Z,12.27
2022-08-28T04:16:11.769Z,11.82
2022-08-28T04:18:41.233Z,11.35
2022-08-28T04:21:14.300Z,10.98
2022-08-28T04:23:43.472Z,11.60
2022-08-28T04:26:13.712Z,11.52
2022-08-28T04:28:41.234Z,11.32
2022-08-28T04:31:08.564Z,12.07
2022-08-28T04:33:36.163Z,11.10
2022-08-28T04:36:09.328Z,12.13
2022-08-28T04:38:41.654Z,10.80
2022-08-28T04:41:14.830Z,10.45
2022-08-28T04:43:43.210Z,11.50
2022-08-28T04:46:13.332Z,11.68
2022-08-28T04:48:41.464Z,11.02
2022-08-28T04:51:10.693Z,11.32
2022-08-28T04:53:38.615Z,11.65
2022-08-28T04:56:08.196Z,11.30
2022-08-28T04:58:35.835Z,12.27
2022-08-28T05:01:09.015Z,10.93
2022-08-28T05:03:36.197Z,11.07
2022-08-28T05:06:04.026Z,11.63
2022-08-28T05:08:32.152Z,11.73
2022-08-28T05:11:32.707Z,11.40
2022-08-28T05:14:04.778Z,12.43
2022-08-28T05:16:33.349Z,11.60
2022-08-28T05:19:02.293Z,11.20
2022-08-28T05:21:29.611Z,11.30
2022-08-28T05:23:58.200Z,12.02
2022-08-28T05:26:27.096Z,14.02
2022-08-28T05:28:57.490Z,13.10
2022-08-28T05:31:25.923Z,12.50
2022-08-28T05:33:54.147Z,12.18
2022-08-28T05:36:23.297Z,11.30
2022-08-28T05:38:56.625Z,12.85
2022-08-28T05:41:26.937Z,13.20
2022-08-28T05:46:23.411Z,12.35
2022-08-28T05:48:50.735Z,12.45
2022-08-28T05:51:22.270Z,12.38
2022-08-28T05:53:50.302Z,13.55
2022-08-28T05:56:24.120Z,13.25
2022-08-28T05:58:51.385Z,12.18
2022-08-28T06:01:24.322Z,12.55
2022-08-28T06:04:00.929Z,13.07
2022-08-28T06:06:30.522Z,13.23
2022-08-28T06:09:04.731Z,13.60
2022-08-28T06:11:32.875Z,13.07
2022-08-28T06:14:02.451Z,13.90
2022-08-28T06:16:31.897Z,14.65
2022-08-28T06:19:00.731Z,14.52
2022-08-28T06:21:29.248Z,13.60
2022-08-28T06:23:56.735Z,13.30
2022-08-28T06:26:24.152Z,14.23
2022-08-28T06:28:52.616Z,14.20
2022-08-28T06:31:24.557Z,13.10
2022-08-28T06:33:54.629Z,14.20
2022-08-28T06:36:22.491Z,13.98
2022-08-28T06:38:49.733Z,14.23
2022-08-28T06:41:16.877Z,13.75
2022-08-28T06:43:44.072Z,13.70
2022-08-28T06:46:11.386Z,13.55
2022-08-28T06:48:38.620Z,14.32
2022-08-28T06:51:07.776Z,14.50
2022-08-28T06:53:35.654Z,13.68
2022-08-28T06:56:08.704Z,13.93
2022-08-28T06:58:37.917Z,13.57
2022-08-28T07:01:29.871Z,14.60
2022-08-28T07:04:00.364Z,13.63
2022-08-28T07:06:30.762Z,14.50
2022-08-28T07:08:58.011Z,13.90
2022-08-28T07:11:31.715Z,13.35
2022-08-28T07:13:59.729Z,13.50
2022-08-28T07:16:30.774Z,12.95
2022-08-28T07:18:58.982Z,12.38
2022-08-28T07:21:27.271Z,13.80
2022-08-28T07:23:55.216Z,12.77
2022-08-28T07:26:26.295Z,13.35
2022-08-28T07:28:57.790Z,12.98
2022-08-28T07:31:43.014Z,12.63
2022-08-28T07:34:12.247Z,11.98
2022-08-28T07:36:40.213Z,12.25
2022-08-28T07:39:07.981Z,12.75
2022-08-28T07:41:39.322Z,12.73
2022-08-28T07:44:25.800Z,12.70
2022-08-28T07:46:58.155Z,12.85
2022-08-28T07:49:26.448Z,12.18
2022-08-28T07:51:54.631Z,12.25
2022-08-28T07:54:22.885Z,12.77
2022-08-28T07:56:50.949Z,12.93
2022-08-28T07:59:19.426Z,11.50
2022-08-28T08:01:48.951Z,12.43
2022-08-28T08:04:17.498Z,12.10
2022-08-28T08:06:45.848Z,12.30
2022-08-28T08:09:16.085Z,12.70
2022-08-28T08:14:11.577Z,12.70
2022-08-28T08:16:42.023Z,13.57
2022-08-28T08:19:10.477Z,13.23
2022-08-28T08:21:38.113Z,12.35
2022-08-28T08:24:05.599Z,11.98
2022-08-28T08:26:33.867Z,12.35
2022-08-28T08:29:01.479Z,12.40
2022-08-28T08:31:35.223Z,12.57
2022-08-28T08:34:05.153Z,11.38
2022-08-28T08:36:35.468Z,13.75
2022-08-28T08:39:06.441Z,13.10
2022-08-28T08:41:50.205Z,13.15
2022-08-28T08:44:33.648Z,13.00
2022-08-28T08:47:09.562Z,12.75
2022-08-28T08:49:42.545Z,13.18
2022-08-28T08:52:12.476Z,11.85
2022-08-28T08:54:45.095Z,12.60
2022-08-28T08:57:15.034Z,12.00
2022-08-28T08:59:42.518Z,11.60
2022-08-28T09:02:18.653Z,11.73
2022-08-28T09:05:01.925Z,10.85
2022-08-28T09:07:38.285Z,10.93
2022-08-28T09:10:11.251Z,10.73
2022-08-28T09:12:55.845Z,10.95
2022-08-28T09:15:42.632Z,10.68
2022-08-28T09:18:21.059Z,10.68
2022-08-28T09:20:58.845Z,10.63
2022-08-28T09:23:30.098Z,10.65
2022-08-28T09:26:01.727Z,10.45
2022-08-28T09:28:41.321Z,10.18
2022-08-28T09:31:14.063Z,9.75
2022-08-28T09:33:49.911Z,10.25
2022-08-28T09:36:34.386Z,9.55
2022-08-28T09:39:18.313Z,9.80
2022-08-28T09:42:07.192Z,10.40
2022-08-28T09:44:46.322Z,10.27
2022-08-28T09:47:36.758Z,9.88
2022-08-28T09:50:36.279Z,9.50
2022-08-28T09:53:09.434Z,8.98
2022-08-28T09:55:55.664Z,8.80
2022-08-28T09:58:28.331Z,9.68
2022-08-28T10:01:10.291Z,9.38
2022-08-28T10:03:52.566Z,9.57
2022-08-28T10:06:29.644Z,9.40
2022-08-28T10:09:05.210Z,9.50
2022-08-28T10:12:07.755Z,9.68
2022-08-28T10:14:49.378Z,11.13
2022-08-28T10:17:54.054Z,12.32
2022-08-28T10:20:43.632Z,12.43
2022-08-28T10:23:17.888Z,12.52
2022-08-28T10:25:51.692Z,13.90
2022-08-28T10:28:47.475Z,13.18
2022-08-28T10:31:31.589Z,14.10
2022-08-28T10:34:13.904Z,13.55
2022-08-28T10:36:42.837Z,14.02
2022-08-28T10:39:51.479Z,13.85
2022-08-28T10:42:43.446Z,13.45
2022-08-28T10:45:19.053Z,12.50
2022-08-28T10:47:53.355Z,12.93
2022-08-28T10:50:28.417Z,12.05
2022-08-28T10:53:10.783Z,11.95
2022-08-28T10:55:44.696Z,12.27
2022-08-28T10:58:23.818Z,11.65
2022-08-28T11:01:01.336Z,12.35
2022-08-28T11:03:35.114Z,11.70
2022-08-28T11:06:11.751Z,11.32
2022-08-28T11:08:40.095Z,11.23
2022-08-28T11:11:14.022Z,11.20
2022-08-28T11:13:44.567Z,11.13
2022-08-28T11:16:23.021Z,11.60
2022-08-28T11:19:27.811Z,11.45
2022-08-28T11:22:16.097Z,11.88
2022-08-28T11:24:49.344Z,11.40
2022-08-28T11:27:29.934Z,11.30
2022-08-28T11:30:01.991Z,11.95
2022-08-28T11:32:34.858Z,10.15
2022-08-28T11:35:12.368Z,10.95
2022-08-28T11:37:45.084Z,10.70
2022-08-28T11:40:55.053Z,10.43
2022-08-28T11:43:22.508Z,10.23
2022-08-28T11:45:55.883Z,10.30
2022-08-28T11:48:23.004Z,10.20
2022-08-28T11:50:58.783Z,10.30
2022-08-28T11:53:38.073Z,10.32
2022-08-28T11:56:33.354Z,10.60
2022-08-28T11:59:12.800Z,10.48
2022-08-28T12:01:40.569Z,10.50
2022-08-28T12:04:15.648Z,10.52
2022-08-28T12:06:48.629Z,10.77
2022-08-28T12:09:45.258Z,10.60
2022-08-28T12:12:19.298Z,10.85
2022-08-28T12:14:46.530Z,10.60
2022-08-28T12:17:17.923Z,11.13
2022-08-28T12:19:55.226Z,11.20
2022-08-28T12:22:44.303Z,11.02
2022-08-28T12:25:32.811Z,10.80
2022-08-28T12:28:18.936Z,10.60
2022-08-28T12:31:02.103Z,10.30
2022-08-28T12:33:50.801Z,10.63
2022-08-28T12:36:26.933Z,10.18
2022-08-28T12:38:56.173Z,10.25
2022-08-28T12:41:27.367Z,10.53
2022-08-28T12:43:58.680Z,10.57
2022-08-28T12:46:28.516Z,9.60
2022-08-28T12:49:02.445Z,10.40
2022-08-28T12:51:33.269Z,10.18
2022-08-28T12:54:05.968Z,10.07
2022-08-28T12:56:37.047Z,10.18
2022-08-28T12:59:27.487Z,9.93
2022-08-28T13:01:55.222Z,10.13
2022-08-28T13:04:36.173Z,10.27
2022-08-28T13:07:16.752Z,9.90
2022-08-28T13:09:49.517Z,10.02
2022-08-28T13:12:55.225Z,9.23
2022-08-28T13:15:50.712Z,9.40
2022-08-28T13:18:39.184Z,9.50
2022-08-28T13:21:24.569Z,9.75
2022-08-28T13:24:22.349Z,9.77
2022-08-28T13:26:59.587Z,9.10
2022-08-28T13:29:27.239Z,9.40
2022-08-28T13:32:00.448Z,9.27
2022-08-28T13:34:29.984Z,9.45
2022-08-28T13:37:05.835Z,9.18
2022-08-28T13:39:42.012Z,8.70
2022-08-28T13:42:16.255Z,9.52
2022-08-28T13:44:54.006Z,8.95
2022-08-28T13:47:21.096Z,9.48
2022-08-28T13:49:49.295Z,8.88
2022-08-28T13:52:16.578Z,9.43
2022-08-28T13:54:45.519Z,9.98
2022-08-28T13:57:14.005Z,9.05
2022-08-28T13:59:41.675Z,9.35
2022-08-28T14:02:31.405Z,8.75
2022-08-28T14:04:58.892Z,8.93
2022-08-28T14:07:26.230Z,9.13
2022-08-28T14:09:56.383Z,8.70
2022-08-28T14:12:33.037Z,9.38
2022-08-28T14:15:02.383Z,8.52
2022-08-28T14:17:29.964Z,8.40
2022-08-28T14:19:57.403Z,9.13
2022-08-28T14:22:24.484Z,8.40
2022-08-28T14:24:51.703Z,8.93
2022-08-28T14:27:18.975Z,8.57
2022-08-28T14:29:46.463Z,8.60
2022-08-28T14:32:13.652Z,8.43
2022-08-28T14:34:41.584Z,8.80
2022-08-28T14:37:08.765Z,8.73
2022-08-28T14:39:36.039Z,8.07
2022-08-28T14:42:06.416Z,8.20
2022-08-28T14:44:40.436Z,8.80
2022-08-28T14:47:07.555Z,8.50
2022-08-28T14:49:34.765Z,8.25
2022-08-28T14:52:02.077Z,8.32
2022-08-28T14:54:29.332Z,8.60
2022-08-28T14:56:56.696Z,8.35
2022-08-28T14:59:27.874Z,8.98
2022-08-28T15:01:58.402Z,8.80
2022-08-28T15:04:27.916Z,8.45
2022-08-28T15:06:59.575Z,7.28
2022-08-28T15:09:27.575Z,7.68
2022-08-28T15:11:55.101Z,6.68
2022-08-28T15:14:22.614Z,6.22
2022-08-28T15:16:50.204Z,6.18
2022-08-28T15:19:18.451Z,6.40
2022-08-28T15:21:49.743Z,5.35
2022-08-28T15:24:19.134Z,5.93
2022-08-28T15:26:47.209Z,5.95
2022-08-28T15:29:14.950Z,5.72
2022-08-28T15:31:45.690Z,5.30
2022-08-28T15:34:16.957Z,5.43
2022-08-28T15:36:54.632Z,5.60
2022-08-28T15:39:47.422Z,5.32
2022-08-28T15:42:14.885Z,5.15
2022-08-28T15:44:43.933Z,5.07
2022-08-28T15:47:12.804Z,5.13
2022-08-28T15:49:48.973Z,5.53
2022-08-28T15:52:18.814Z,5.00
2022-08-28T15:54:46.227Z,5.30
2022-08-28T15:57:13.412Z,5.30
2022-08-28T15:59:49.060Z,5.40
2022-08-28T16:02:23.045Z,5.00
2022-08-28T16:04:50.374Z,4.63
2022-08-28T16:07:19.497Z,5.25
2022-08-28T16:09:46.940Z,4.90
2022-08-28T16:12:14.421Z,5.03
2022-08-28T16:14:41.731Z,5.38
2022-08-28T16:17:11.114Z,4.97
2022-08-28T16:19:41.887Z,4.60
2022-08-28T16:22:10.464Z,5.07
2022-08-28T16:24:38.055Z,4.50
2022-08-28T16:27:06.195Z,4.97
2022-08-28T16:29:35.579Z,4.40
2022-08-28T16:32:04.834Z,4.53
2022-08-28T16:34:33.476Z,4.60
2022-08-28T16:37:01.493Z,4.35
2022-08-28T16:39:29.204Z,4.40
2022-08-28T16:41:56.573Z,4.13
2022-08-28T16:44:28.205Z,5.07
2022-08-28T16:46:56.334Z,4.07
2022-08-28T16:49:24.061Z,4.32
2022-08-28T16:51:51.904Z,4.20
2022-08-28T16:54:19.651Z,4.15
2022-08-28T16:56:47.143Z,4.13
2022-08-28T16:59:23.477Z,4.43
2022-08-28T17:01:53.680Z,4.53
2022-08-28T17:04:21.494Z,3.95
2022-08-28T17:06:48.999Z,3.70
2022-08-28T17:09:16.195Z,3.95
2022-08-28T17:11:43.636Z,3.45
2022-08-28T17:14:12.215Z,4.10
2022-08-28T17:16:39.614Z,4.18
2022-08-28T17:19:06.796Z,3.90
2022-08-28T17:21:52.401Z,3.80
2022-08-28T17:24:20.123Z,3.67
2022-08-28T17:26:47.659Z,4.25
2022-08-28T17:29:15.835Z,3.63
2022-08-28T17:31:43.086Z,4.18
2022-08-28T17:34:10.776Z,3.83
2022-08-28T17:36:40.268Z,3.60
2022-08-28T17:39:10.558Z,3.67
2022-08-28T17:41:39.494Z,3.88
2022-08-28T17:44:07.644Z,3.92
2022-08-28T17:46:37.972Z,4.13
2022-08-28T17:49:07.554Z,3.90
2022-08-28T17:51:43.277Z,4.00
2022-08-28T17:54:18.547Z,4.07
2022-08-28T17:56:46.661Z,3.90
2022-08-28T17:59:15.335Z,3.95
2022-08-28T18:01:45.178Z,3.55
2022-08-28T18:04:13.262Z,3.95
2022-08-28T18:06:40.994Z,4.10
2022-08-28T18:09:10.005Z,3.72
2022-08-28T18:11:37.727Z,3.92
2022-08-28T18:14:05.865Z,3.88
2022-08-28T18:16:34.373Z,3.97
2022-08-28T18:19:02.233Z,3.80
2022-08-28T18:21:29.724Z,3.90
2022-08-28T18:23:57.655Z,3.88
2022-08-28T18:26:24.793Z,3.63
2022-08-28T18:28:52.855Z,4.85
2022-08-28T18:31:20.482Z,4.38
2022-08-28T18:33:47.910Z,4.60
2022-08-28T18:36:16.226Z,4.20
2022-08-28T18:38:44.684Z,3.47
2022-08-28T18:41:12.386Z,4.00
2022-08-28T18:43:39.581Z,4.10
2022-08-28T18:46:09.512Z,3.97
2022-08-28T18:48:38.138Z,4.40
2022-08-28T18:51:12.615Z,4.43
2022-08-28T18:53:42.383Z,4.25
2022-08-28T18:56:12.264Z,4.30
2022-08-28T18:58:40.877Z,4.35
2022-08-28T19:01:09.534Z,4.88
2022-08-28T19:03:37.287Z,5.63
2022-08-28T19:06:06.471Z,5.10
2022-08-28T19:08:35.622Z,5.90
2022-08-28T19:11:07.923Z,5.15
2022-08-28T19:13:35.670Z,4.72
2022-08-28T19:16:03.411Z,5.20
2022-08-28T19:18:31.027Z,5.38
2022-08-28T19:21:05.301Z,5.32
2022-08-28T19:23:32.753Z,5.00
2022-08-28T19:25:59.961Z,5.20
2022-08-28T19:28:27.334Z,4.88
2022-08-28T19:30:55.172Z,5.10
2022-08-28T19:33:22.484Z,5.10
2022-08-28T19:35:50.365Z,4.60
2022-08-28T19:38:18.168Z,4.60
2022-08-28T19:40:45.766Z,4.75
2022-08-28T19:43:16.556Z,4.40
2022-08-28T19:45:45.619Z,4.70
2022-08-28T19:48:13.162Z,3.78
2022-08-28T19:50:41.241Z,4.00
2022-08-28T19:53:10.076Z,4.45
2022-08-28T19:55:37.403Z,4.20
2022-08-28T19:58:06.789Z,3.83
2022-08-28T20:03:03.068Z,4.10
2022-08-28T20:05:30.265Z,4.47
2022-08-28T20:07:57.623Z,4.45
2022-08-28T20:10:26.590Z,4.03
2022-08-28T20:12:54.296Z,4.47
2022-08-28T20:15:21.756Z,4.10
2022-08-28T20:17:49.450Z,4.20
2022-08-28T20:20:25.602Z,4.32
2022-08-28T20:22:55.260Z,3.97
2022-08-28T20:25:23.854Z,4.18
2022-08-28T20:27:50.953Z,4.70
2022-08-28T20:30:18.396Z,3.50
2022-08-28T20:32:45.710Z,3.80
2022-08-28T20:35:13.738Z,4.35
2022-08-28T20:37:45.193Z,4.05
2022-08-28T20:40:18.824Z,4.32
2022-08-28T20:42:46.674Z,4.50
2022-08-28T20:45:15.355Z,4.32
2022-08-28T20:47:43.066Z,4.75
2022-08-28T20:50:10.727Z,4.10
2022-08-28T20:52:38.635Z,3.80
2022-08-28T20:55:10.723Z,4.20
2022-08-28T20:57:37.915Z,4.82
2022-08-28T21:00:08.507Z,4.55
2022-08-28T21:02:36.610Z,4.72
2022-08-28T21:05:04.180Z,4.53
2022-08-28T21:07:33.632Z,4.80
2022-08-28T21:10:05.958Z,5.00
2022-08-28T21:12:39.194Z,4.88
2022-08-28T21:15:08.856Z,4.95
2022-08-28T21:17:36.291Z,4.60
2022-08-28T21:20:10.293Z,4.60
2022-08-28T21:22:38.436Z,5.00
2022-08-28T21:25:08.925Z,5.07
2022-08-28T21:27:36.891Z,5.28
2022-08-28T21:30:06.888Z,5.32
2022-08-28T21:32:34.500Z,5.20
2022-08-28T21:35:04.202Z,5.53
2022-08-28T21:37:31.531Z,4.85
2022-08-28T21:39:59.806Z,5.00
2022-08-28T21:42:28.216Z,5.70
2022-08-28T21:44:55.581Z,5.35
2022-08-28T21:47:24.221Z,5.35
2022-08-28T21:49:56.354Z,5.25
2022-08-28T21:52:28.001Z,5.25
2022-08-28T21:55:04.191Z,5.57
2022-08-28T21:57:32.352Z,5.63
2022-08-28T21:59:59.800Z,5.43
2022-08-28T22:02:27.729Z,5.88
2022-08-28T22:04:54.874Z,6.10
2022-08-28T22:07:22.130Z,5.70
2022-08-28T22:09:49.606Z,5.95
2022-08-28T22:12:16.940Z,6.05
2022-08-28T22:14:44.122Z,5.88
2022-08-28T22:17:12.033Z,5.90
2022-08-28T22:19:40.072Z,5.97
2022-08-28T22:22:26.949Z,6.03
2022-08-28T22:24:54.311Z,6.30
2022-08-28T22:27:21.922Z,6.40
2022-08-28T22:29:49.031Z,5.90
2022-08-28T22:32:16.153Z,6.03
2022-08-28T22:34:46.704Z,6.35
2022-08-28T22:37:14.030Z,6.68
2022-08-28T22:39:42.373Z,6.30
2022-08-28T22:42:10.574Z,6.63
2022-08-28T22:44:38.628Z,6.40
2022-08-28T22:47:06.385Z,5.95
2022-08-28T22:49:33.943Z,6.50
2022-08-28T22:52:03.287Z,6.82
2022-08-28T22:54:32.715Z,6.68
2022-08-28T22:56:59.886Z,6.50
2022-08-28T22:59:28.225Z,6.43
2022-08-28T23:01:55.344Z,6.40
2022-08-28T23:04:22.558Z,6.60
2022-08-28T23:06:50.384Z,6.95
2022-08-28T23:09:17.583Z,6.70
2022-08-28T23:11:44.743Z,6.72
2022-08-28T23:14:12.573Z,6.80
2022-08-28T23:16:39.886Z,7.43
2022-08-28T23:19:09.662Z,8.00
2022-08-28T23:21:43.828Z,8.07
2022-08-28T23:24:13.239Z,6.82
2022-08-28T23:26:40.785Z,6.70
2022-08-28T23:29:08.398Z,6.75
2022-08-28T23:31:36.530Z,7.03
2022-08-28T23:34:06.300Z,5.95
2022-08-28T23:36:35.245Z,6.47
2022-08-28T23:39:03.437Z,6.13
2022-08-28T23:41:31.831Z,6.30
2022-08-28T23:43:58.957Z,6.00
2022-08-28T23:46:26.076Z,5.00
2022-08-28T23:48:53.328Z,5.60
2022-08-28T23:51:22.190Z,5.60
2022-08-28T23:53:50.153Z,5.88
2022-08-28T23:56:18.431Z,5.95
2022-08-28T23:58:45.766Z,5.57
